createdAt,value
2023-05-04T00:01:53.440Z,7.52
2023-05-04T00:06:55.822Z,7.46
2023-05-04T00:11:57.948Z,7.42
2023-05-04T00:16:59.954Z,7.37
2023-05-04T00:22:02.170Z,7.68
2023-05-04T00:27:04.475Z,7.27
2023-05-04T00:32:07.408Z,7.13
2023-05-04T00:37:09.489Z,7.06
2023-05-04T00:42:11.919Z,6.98
2023-05-04T00:47:14.150Z,6.93
2023-05-04T00:52:17.555Z,6.87
2023-05-04T00:57:19.812Z,6.81
2023-05-04T01:02:22.301Z,6.77
2023-05-04T01:07:53.974Z,6.81
2023-05-04T01:13:08.480Z,6.75
2023-05-04T01:18:10.714Z,6.55
2023-05-04T01:23:12.894Z,6.51
2023-05-04T01:28:21.998Z,6.47
2023-05-04T01:33:24.773Z,6.43
2023-05-04T01:38:26.853Z,6.38
2023-05-04T01:43:28.894Z,6.33
2023-05-04T01:48:31.102Z,6.28
2023-05-04T01:53:33.091Z,6.29
2023-05-04T01:58:34.978Z,6.66
2023-05-04T02:03:37.303Z,6.33
2023-05-04T02:08:39.804Z,6.31
2023-05-04T02:13:43.295Z,6.24
2023-05-04T02:18:46.630Z,6.44
2023-05-04T02:23:50.837Z,6.49
2023-05-04T02:28:52.671Z,6.98
2023-05-04T02:33:54.871Z,6.66
2023-05-04T02:38:57.099Z,6.80
2023-05-04T02:43:59.222Z,6.87
2023-05-04T02:49:01.459Z,6.98
2023-05-04T02:54:03.768Z,7.08
2023-05-04T02:59:05.959Z,7.20
2023-05-04T03:04:08.309Z,7.33
2023-05-04T03:09:10.535Z,7.43
2023-05-04T03:14:12.634Z,7.56
2023-05-04T03:19:19.027Z,7.68
2023-05-04T03:24:22.214Z,7.81
2023-05-04T03:29:24.723Z,7.90
2023-05-04T03:34:27.678Z,8.00
2023-05-04T03:39:35.004Z,8.10
2023-05-04T03:44:37.088Z,8.22
2023-05-04T03:49:39.686Z,8.82
2023-05-04T03:54:41.796Z,8.53
2023-05-04T03:59:44.170Z,8.62
2023-05-04T04:04:46.283Z,8.73
2023-05-04T04:09:48.677Z,8.83
2023-05-04T04:14:52.563Z,8.96
2023-05-04T04:19:54.579Z,9.07
2023-05-04T04:24:56.573Z,9.67
2023-05-04T04:29:58.630Z,9.37
2023-05-04T04:35:01.023Z,9.42
2023-05-04T04:40:04.236Z,9.52
2023-05-04T04:45:07.407Z,9.64
2023-05-04T04:50:10.122Z,9.76
2023-05-04T04:55:12.299Z,9.95
2023-05-04T05:00:14.940Z,10.12
2023-05-04T05:05:17.316Z,10.29
2023-05-04T05:10:21.240Z,10.54
2023-05-04T05:15:23.317Z,11.66
2023-05-04T05:20:25.464Z,14.03
2023-05-04T05:25:28.099Z,15.19
2023-05-04T05:30:30.314Z,16.58
2023-05-04T05:35:32.433Z,17.86
2023-05-04T05:40:34.556Z,18.89
2023-05-04T05:45:36.743Z,20.39
2023-05-04T05:50:38.804Z,21.23
2023-05-04T05:55:40.850Z,21.79
2023-05-04T06:00:43.030Z,22.37
2023-05-04T06:05:45.151Z,22.67
2023-05-04T06:10:48.055Z,22.92
2023-05-04T06:15:54.326Z,24.14
2023-05-04T06:21:00.814Z,24.88
2023-05-04T06:26:06.012Z,25.31
2023-05-04T06:31:08.620Z,25.70
2023-05-04T06:36:12.448Z,25.84
2023-05-04T06:41:14.502Z,25.94
2023-05-04T06:46:16.663Z,27.34
2023-05-04T06:51:18.779Z,28.58
2023-05-04T06:56:21.942Z,29.81
2023-05-04T07:01:24.128Z,30.61
2023-05-04T07:06:27.338Z,31.27
2023-05-04T07:11:31.066Z,31.81
2023-05-04T07:16:33.258Z,32.11
2023-05-04T07:21:35.448Z,32.46
2023-05-04T07:26:37.476Z,32.60
2023-05-04T07:31:39.490Z,33.26
2023-05-04T07:36:43.265Z,33.12
2023-05-04T07:41:46.652Z,32.11
2023-05-04T07:46:50.169Z,31.64
2023-05-04T07:51:52.675Z,32.64
2023-05-04T07:56:54.767Z,34.29
2023-05-04T08:01:57.073Z,34.17
2023-05-04T08:06:59.355Z,34.76
2023-05-04T08:12:01.507Z,34.09
2023-05-04T08:17:04.128Z,31.00
2023-05-04T08:22:06.192Z,31.66
2023-05-04T08:27:09.493Z,33.99
2023-05-04T08:32:12.111Z,34.28
2023-05-04T08:37:14.294Z,33.67
2023-05-04T08:42:30.169Z,31.38
2023-05-04T08:47:32.366Z,30.45
2023-05-04T08:52:36.869Z,32.05
2023-05-04T08:57:42.353Z,34.49
2023-05-04T09:02:45.918Z,36.10
2023-05-04T09:07:51.104Z,36.99
2023-05-04T09:12:56.769Z,38.67
2023-05-04T09:18:02.462Z,39.21
2023-05-04T09:23:08.827Z,39.95
2023-05-04T09:28:11.028Z,39.48
2023-05-04T09:33:13.243Z,39.04
2023-05-04T09:38:26.849Z,38.31
2023-05-04T09:43:40.884Z,37.59
2023-05-04T09:48:54.159Z,35.24
2023-05-04T09:54:01.665Z,32.21
2023-05-04T09:59:05.424Z,33.88
2023-05-04T10:04:07.837Z,35.44
2023-05-04T10:09:11.702Z,36.09
2023-05-04T10:14:14.008Z,36.17
2023-05-04T10:19:35.859Z,35.80
2023-05-04T10:24:58.216Z,34.65
2023-05-04T10:30:01.835Z,35.75
2023-05-04T10:35:07.851Z,35.79
2023-05-04T10:40:11.062Z,36.57
2023-05-04T10:45:13.792Z,34.94
2023-05-04T10:50:16.138Z,34.33
2023-05-04T10:55:18.988Z,33.68
2023-05-04T11:00:24.554Z,33.11
2023-05-04T11:05:28.053Z,33.62
2023-05-04T11:10:30.187Z,33.30
2023-05-04T11:15:32.919Z,33.74
2023-05-04T11:20:35.184Z,32.69
2023-05-04T11:25:38.103Z,30.09
2023-05-04T11:30:41.491Z,29.50
2023-05-04T11:35:44.676Z,27.97
2023-05-04T11:40:48.449Z,26.52
2023-05-04T11:45:50.947Z,28.41
2023-05-04T11:50:53.420Z,31.69
2023-05-04T11:56:02.149Z,33.21
2023-05-04T12:01:04.519Z,32.32
2023-05-04T12:06:07.346Z,31.68
2023-05-04T12:11:20.592Z,29.86
2023-05-04T12:16:23.948Z,27.01
2023-05-04T12:21:25.991Z,25.48
2023-05-04T12:26:28.528Z,25.74
2023-05-04T12:31:30.716Z,28.30
2023-05-04T12:36:32.970Z,30.09
2023-05-04T12:41:35.251Z,29.93
2023-05-04T12:46:37.635Z,26.89
2023-05-04T12:51:39.854Z,24.58
2023-05-04T12:56:41.919Z,23.44
2023-05-04T13:01:44.055Z,22.77
2023-05-04T13:06:48.442Z,23.03
2023-05-04T13:11:50.628Z,22.99
2023-05-04T13:16:54.045Z,23.67
2023-05-04T13:21:56.306Z,23.84
2023-05-04T13:26:58.457Z,23.73
2023-05-04T13:32:00.622Z,23.38
2023-05-04T13:37:03.050Z,22.65
2023-05-04T13:42:05.282Z,22.02
2023-05-04T13:47:07.536Z,21.43
2023-05-04T13:52:09.949Z,21.23
2023-05-04T13:57:12.007Z,20.88
2023-05-04T14:02:14.097Z,20.62
2023-05-04T14:07:17.384Z,20.13
2023-05-04T14:12:21.396Z,19.63
2023-05-04T14:17:23.363Z,19.24
2023-05-04T14:22:25.545Z,19.00
2023-05-04T14:27:27.635Z,18.67
2023-05-04T14:32:29.710Z,18.59
2023-05-04T14:37:31.810Z,18.67
2023-05-04T14:42:34.078Z,18.60
2023-05-04T14:47:36.277Z,18.38
2023-05-04T14:52:38.374Z,18.16
2023-05-04T14:57:41.068Z,18.67
2023-05-04T15:02:43.262Z,17.87
2023-05-04T15:07:45.388Z,17.66
2023-05-04T15:12:47.910Z,17.49
2023-05-04T15:17:50.924Z,17.39
2023-05-04T15:22:54.076Z,17.13
2023-05-04T15:27:56.352Z,16.94
2023-05-04T15:32:58.370Z,16.74
2023-05-04T15:38:00.796Z,17.08
2023-05-04T15:43:03.673Z,17.20
2023-05-04T15:48:05.932Z,16.88
2023-05-04T15:53:08.277Z,16.98
2023-05-04T15:58:11.371Z,17.07
2023-05-04T16:03:13.693Z,17.09
2023-05-04T16:08:15.907Z,17.07
2023-05-04T16:13:18.068Z,16.97
2023-05-04T16:18:20.752Z,16.88
2023-05-04T16:23:22.826Z,16.80
2023-05-04T16:28:24.922Z,16.71
2023-05-04T16:33:26.817Z,17.16
2023-05-04T16:38:29.688Z,16.59
2023-05-04T16:43:32.171Z,16.48
2023-05-04T16:48:34.441Z,16.40
2023-05-04T16:53:36.564Z,16.26
2023-05-04T16:58:38.915Z,16.02
2023-05-04T17:03:41.065Z,15.78
2023-05-04T17:08:44.650Z,15.56
2023-05-04T17:13:46.863Z,15.54
2023-05-04T17:18:49.221Z,15.45
2023-05-04T17:23:51.476Z,15.38
2023-05-04T17:28:53.769Z,15.31
2023-05-04T17:33:56.208Z,15.28
2023-05-04T17:38:58.715Z,15.22
2023-05-04T17:44:00.821Z,15.14
2023-05-04T17:49:03.017Z,15.03
2023-05-04T17:54:05.229Z,14.84
2023-05-04T17:59:07.378Z,14.84
2023-05-04T18:04:09.595Z,14.75
2023-05-04T18:09:11.885Z,15.16
2023-05-04T18:14:13.894Z,14.54
2023-05-04T18:19:23.769Z,14.51
2023-05-04T18:24:25.914Z,14.41
2023-05-04T18:29:28.131Z,14.33
2023-05-04T18:34:30.216Z,14.25
2023-05-04T18:39:32.066Z,14.63
2023-05-04T18:44:34.162Z,14.08
2023-05-04T18:49:36.165Z,14.35
2023-05-04T18:54:38.214Z,13.82
2023-05-04T18:59:40.507Z,14.10
2023-05-04T19:04:43.133Z,13.60
2023-05-04T19:09:48.429Z,13.49
2023-05-04T19:14:51.295Z,13.48
2023-05-04T19:19:53.477Z,13.37
2023-05-04T19:24:55.672Z,13.45
2023-05-04T19:29:57.709Z,13.40
2023-05-04T19:34:59.680Z,13.87
2023-05-04T19:40:02.032Z,13.46
2023-05-04T19:45:06.366Z,13.33
2023-05-04T19:50:11.617Z,13.25
2023-05-04T19:55:13.945Z,13.05
2023-05-04T20:00:19.823Z,12.92
2023-05-04T20:05:22.003Z,12.80
2023-05-04T20:10:24.165Z,12.68
2023-05-04T20:15:26.243Z,12.63
2023-05-04T20:20:28.291Z,13.04
2023-05-04T20:25:30.341Z,12.55
2023-05-04T20:30:32.729Z,12.84
2023-05-04T20:35:34.756Z,12.30
2023-05-04T20:40:36.809Z,12.60
2023-05-04T20:45:38.822Z,12.04
2023-05-04T20:50:40.652Z,12.33
2023-05-04T20:55:43.626Z,11.80
2023-05-04T21:00:46.075Z,11.67
2023-05-04T21:05:48.181Z,11.60
2023-05-04T21:10:50.112Z,11.97
2023-05-04T21:15:52.176Z,11.52
2023-05-04T21:20:54.326Z,11.43
2023-05-04T21:26:03.792Z,11.50
2023-05-04T21:31:09.423Z,11.31
2023-05-04T21:36:14.979Z,11.20
2023-05-04T21:41:17.182Z,11.03
2023-05-04T21:46:19.203Z,10.89
2023-05-04T21:51:22.131Z,11.21
2023-05-04T21:56:24.136Z,10.72
2023-05-04T22:01:27.024Z,11.09
2023-05-04T22:06:29.155Z,10.68
2023-05-04T22:11:31.370Z,10.67
2023-05-04T22:16:33.327Z,11.12
2023-05-04T22:21:36.014Z,10.80
2023-05-04T22:26:40.905Z,10.80
2023-05-04T22:31:43.036Z,10.86
2023-05-04T22:36:45.133Z,10.91
2023-05-04T22:41:47.156Z,10.92
2023-05-04T22:46:49.474Z,11.40
2023-05-04T22:51:51.963Z,10.98
2023-05-04T22:56:53.933Z,10.89
2023-05-04T23:01:55.951Z,10.86
2023-05-04T23:06:58.164Z,11.17
2023-05-04T23:12:00.313Z,10.84
2023-05-04T23:17:02.763Z,11.25
2023-05-04T23:22:04.775Z,10.83
2023-05-04T23:27:07.104Z,10.82
2023-05-04T23:32:09.098Z,10.60
2023-05-04T23:37:11.151Z,11.23
2023-05-04T23:42:13.186Z,10.79
2023-05-04T23:47:15.094Z,11.19
2023-05-04T23:52:17.217Z,10.77
2023-05-04T23:57:19.052Z,11.09
